Flight Number: EUR2087 Duration: 1:15
Departure: Munich Int'l (EDDM) at 08:15 Distance: 369 Nm
Arrival: Paris Charles-de-Gaulle (LFPG) at 09:30 Equipment: MD-81

Weather Information
Munchen, Germany (EDDM) 48-21N 011-47E May 22, 2018 - 02:50 PM EDT / 2018.05.22 1850 UTC
Wind: from the SW (230 degrees) at 6 MPH (5 KT) (direction variable):0
Visibility: greater than 7 mile(s):0
Sky conditions: mostly cloudy Weather: light rain showers; Towering cumulus clouds observed Temperature: 62 F (17 C) Dew Point: 53 F (12 C) Relative Humidity: 72% Pressure (altimeter): 29.91 in. Hg (1013 hPa)
ob: EDDM 221850Z 23005KT 190V320 9999 -SHRA FEW055TCU SCT085 BKN120 17/12 Q1013 TEMPO SHRA cycle: 19
Sunrise: 03:28 Sunset: 18:51 (UTC)

Paris-Aeroport Charles De Gaulle, France (LFPG) 49-01N 002-32E 109M May 22, 2018 - 03:00 PM EDT / 2018.05.22 1900 UTC
Wind: from the NNE (020 degrees) at 6 MPH (5 KT):0
Visibility: greater than 7 mile(s):0
Sky conditions: mostly cloudy Weather: Cumulonimbus clouds observed Temperature: 64 F (18 C) Dew Point: 59 F (15 C) Relative Humidity: 82% Pressure (altimeter): 29.94 in. Hg (1014 hPa)
ob: LFPG 221900Z 02005KT 9999 FEW035CB SCT130 BKN230 18/15 Q1014 NOSIG cycle: 19
Sunrise: 04:02 Sunset: 19:30 (UTC)

TAF:2018/05/22 18:57 TAF AMD LFPG 221836Z 2218/2324 32005KT 9999 FEW035CB BECMG 2218/2220 CAVOK PROB30 TEMPO 2218/2220 -TSRA PROB40 TEMPO 2303/2306 4000 BR BKN008 TEMPO 2310/2320 4000 SHRA SCT030TCU PROB40 TEMPO 2313/2316 VRB10G25KT 2000 TSRAGR SCT035CB TX22/2313Z TN12/2303Z

Previous Pireps for this route
Date Aircraft Flight time Fuel used Landing rate On time
2012-10-24MD-811.2095730Yes
2013-09-16CRJ70001.357626-118No
2013-10-14MD-811.15271870No
2014-01-24MD-8101.3310421-170No
2014-03-19CRJ70001.347343-208No
2014-04-11CRJ70001.257150-256Yes
2014-05-10CRJ7001.2450300Yes
2014-05-24MD-811.24159910Yes
2014-07-10B73701.4013777-308Charter
2015-01-17CRJ7001.1532760Yes
2015-04-10CRJ7001.1535270Yes
2015-09-16CRJ7001.358112-805No
2015-11-11A32101.087686-175Charter
2016-03-07MD-8101.269535-133Yes
2016-08-27MD-8101.279575-272Yes
(pireps marked green are flown by you)

Route map